Time;durP1;ratioP1;P1;durP2;ratioP2;P2;SDS_P1;SDS_P2;PMS_P1;PMS_P2;Temp;Humidity;BMP_temperature;BMP_pressure;BME280_temperature;BME280_humidity;BME280_pressure;Samples;Min_cycle;Max_cycle;Signal;HPM_P1;HPM_P2
2021/12/27 00:00:50;;;;;;;26.92;20.38;;;;;;;4.08;90.79;100036.16;5049582;28;20480;-70
2021/12/27 00:03:17;;;;;;;27.45;19.75;;;;;;;4.08;91.13;100035.34;5052908;28;20029;-70
2021/12/27 00:05:42;;;;;;;24.90;18.55;;;;;;;4.10;90.86;100027.94;5053052;28;20040;-71
2021/12/27 00:08:08;;;;;;;25.83;18.55;;;;;;;4.13;90.84;100037.41;5052437;28;20029;-71
2021/12/27 00:10:33;;;;;;;24.30;18.38;;;;;;;4.08;90.79;100030.81;5052434;28;20032;-71
2021/12/27 00:12:59;;;;;;;25.77;18.50;;;;;;;4.13;90.82;100032.06;5052433;28;20035;-71
2021/12/27 00:15:25;;;;;;;25.70;18.05;;;;;;;4.11;91.37;100024.22;5052329;28;20035;-71
2021/12/27 00:17:51;;;;;;;24.83;18.88;;;;;;;4.12;90.93;100036.56;5052238;28;20399;-70
2021/12/27 00:20:19;;;;;;;24.73;18.52;;;;;;;4.13;91.14;100027.53;5052729;28;20035;-70
2021/12/27 00:22:46;;;;;;;24.75;18.73;;;;;;;4.17;91.12;100030.63;5052879;28;20021;-71
2021/12/27 00:25:13;;;;;;;25.60;18.85;;;;;;;4.16;91.11;100021.75;5052773;28;20028;-72
2021/12/27 00:27:38;;;;;;;24.35;18.48;;;;;;;4.14;91.17;100017.66;5052125;28;20124;-71
2021/12/27 00:30:05;;;;;;;24.42;18.75;;;;;;;4.16;91.38;100027.13;5050652;28;20144;-71
2021/12/27 00:32:30;;;;;;;24.00;18.38;;;;;;;4.15;90.96;100025.47;5052235;28;20489;-71
2021/12/27 00:34:55;;;;;;;23.40;18.02;;;;;;;4.17;91.30;100014.56;5052394;28;20112;-71
2021/12/27 00:37:21;;;;;;;22.98;18.02;;;;;;;4.17;91.29;100006.53;5052388;28;20116;-71
2021/12/27 00:39:46;;;;;;;24.30;18.48;;;;;;;4.20;91.20;100009.63;5052629;28;20561;-70
2021/12/27 00:42:11;;;;;;;23.92;17.88;;;;;;;4.20;91.20;100006.94;5052536;28;20025;-70
2021/12/27 00:44:36;;;;;;;24.33;18.08;;;;;;;4.20;90.76;99998.09;5051881;28;20025;-71
2021/12/27 00:47:02;;;;;;;25.92;18.50;;;;;;;4.24;91.25;99996.63;5051566;28;20112;-71
2021/12/27 00:49:28;;;;;;;24.92;18.45;;;;;;;4.23;90.60;99987.78;5052014;28;20036;-71
2021/12/27 00:51:53;;;;;;;24.55;18.65;;;;;;;4.25;91.10;99976.88;5052503;28;20036;-71
2021/12/27 00:54:19;;;;;;;23.88;18.75;;;;;;;4.25;90.93;99976.88;5051888;28;20029;-70
2021/12/27 00:56:45;;;;;;;23.70;18.00;;;;;;;4.26;91.08;99983.88;5052394;28;20090;-70
2021/12/27 00:59:10;;;;;;;25.45;18.50;;;;;;;4.27;90.48;99988.19;5052211;28;20106;-70
2021/12/27 01:01:36;;;;;;;23.02;18.20;;;;;;;4.25;91.02;99977.69;5048509;28;20060;-71
2021/12/27 01:04:02;;;;;;;23.80;18.27;;;;;;;4.28;90.97;99971.09;5052330;28;20040;-71
2021/12/27 01:06:27;;;;;;;25.42;18.48;;;;;;;4.29;91.18;99972.75;5052091;28;20037;-71
2021/12/27 01:08:53;;;;;;;26.50;18.45;;;;;;;4.30;91.47;99977.06;5050578;28;20033;-71
2021/12/27 01:11:25;;;;;;;24.52;18.55;;;;;;;4.31;90.96;99973.38;5051953;28;20040;-71
2021/12/27 01:14:03;;;;;;;23.63;18.10;;;;;;;4.33;91.03;99965.94;5051830;28;20040;-70
2021/12/27 01:16:29;;;;;;;23.65;18.10;;;;;;;4.33;91.01;99973.97;5051884;28;20032;-70
2021/12/27 01:18:55;;;;;;;24.25;18.38;;;;;;;4.36;91.19;99972.75;5054196;28;20037;-70
2021/12/27 01:21:22;;;;;;;24.77;18.48;;;;;;;4.35;91.03;99977.28;5056077;28;20025;-71
2021/12/27 01:23:49;;;;;;;24.98;19.13;;;;;;;4.34;91.63;99972.97;5055788;28;20033;-71
2021/12/27 01:26:15;;;;;;;23.70;17.92;;;;;;;4.37;91.39;99972.53;5056167;28;20067;-71
2021/12/27 01:28:41;;;;;;;26.23;18.52;;;;;;;4.37;90.92;99969.06;5055299;28;20033;-71
2021/12/27 01:31:07;;;;;;;23.38;18.38;;;;;;;4.40;90.95;99974.81;5056028;28;20032;-71
2021/12/27 01:33:33;;;;;;;23.60;18.13;;;;;;;4.39;91.17;99967.81;5055462;28;20040;-71
2021/12/27 01:36:00;;;;;;;23.65;17.55;;;;;;;4.37;91.07;99969.88;5055933;28;20025;-71
2021/12/27 01:38:25;;;;;;;25.08;18.85;;;;;;;4.39;91.21;99969.66;5055562;28;20083;-70
2021/12/27 01:40:52;;;;;;;22.85;17.38;;;;;;;4.41;91.27;99965.75;5055521;28;20033;-71
2021/12/27 01:43:20;;;;;;;23.55;17.75;;;;;;;4.41;90.96;99965.75;5055260;28;20056;-71
2021/12/27 01:45:57;;;;;;;23.10;17.42;;;;;;;4.44;91.13;99970.69;5055733;28;20035;-71
2021/12/27 01:48:28;;;;;;;23.30;18.00;;;;;;;4.46;91.19;99958.97;5035165;28;20469;-71
2021/12/27 01:50:55;;;;;;;23.27;17.58;;;;;;;4.47;91.58;99963.25;5035670;28;20469;-71
2021/12/27 01:53:23;;;;;;;24.55;18.33;;;;;;;4.46;91.38;99951.72;5035451;28;20051;-71
2021/12/27 01:55:51;;;;;;;24.95;17.83;;;;;;;4.47;90.95;99953.41;5035374;28;20030;-71
2021/12/27 01:58:17;;;;;;;26.45;18.52;;;;;;;4.51;91.42;99956.47;5043007;28;20033;-71
2021/12/27 02:00:47;;;;;;;24.88;19.00;;;;;;;4.51;91.60;99954.59;5052936;28;20025;-70
2021/12/27 02:03:14;;;;;;;25.30;18.33;;;;;;;4.52;91.66;99952.78;5055286;28;20033;-71
2021/12/27 02:05:40;;;;;;;23.35;18.05;;;;;;;4.55;91.24;99949.66;5055183;28;20384;-71
2021/12/27 02:08:05;;;;;;;25.20;18.88;;;;;;;4.56;91.96;99946.78;5055043;28;20036;-71
2021/12/27 02:10:32;;;;;;;25.10;18.90;;;;;;;4.57;91.64;99945.72;5054802;28;20036;-71
2021/12/27 02:12:57;;;;;;;24.67;18.38;;;;;;;4.58;91.40;99946.56;5055056;28;20036;-71
2021/12/27 02:15:23;;;;;;;25.85;18.88;;;;;;;4.58;91.66;99942.03;5054578;28;20037;-73
2021/12/27 02:17:48;;;;;;;25.50;17.90;;;;;;;4.56;91.86;99944.09;5054991;28;20025;-71
2021/12/27 02:20:22;;;;;;;27.25;18.80;;;;;;;4.59;91.84;99946.38;5054775;28;20029;-71
2021/12/27 02:22:48;;;;;;;25.42;18.00;;;;;;;4.60;91.87;99948.03;5055024;28;20082;-71
2021/12/27 02:25:15;;;;;;;24.35;18.02;;;;;;;4.61;91.86;99938.94;5055078;28;20020;-71
2021/12/27 02:27:43;;;;;;;25.23;18.73;;;;;;;4.64;91.81;99947.59;5054466;28;20033;-71
2021/12/27 02:30:11;;;;;;;24.10;18.60;;;;;;;4.59;91.80;99943.69;5053962;28;20048;-71
2021/12/27 02:32:53;;;;;;;24.63;18.25;;;;;;;4.65;91.78;99942.03;5054755;28;20033;-71
2021/12/27 02:35:28;;;;;;;24.60;18.05;;;;;;;4.63;91.41;99936.03;5054830;28;20090;-71
2021/12/27 02:37:55;;;;;;;25.48;18.40;;;;;;;4.67;91.60;99950.69;5055052;28;20037;-71
2021/12/27 02:40:22;;;;;;;24.83;18.85;;;;;;;4.66;91.55;99946.34;5054475;28;20357;-70
2021/12/27 02:43:06;;;;;;;25.35;18.15;;;;;;;4.66;91.80;99948.22;5053752;28;20040;-70
2021/12/27 02:45:40;;;;;;;24.38;18.15;;;;;;;4.67;91.73;99952.56;5054202;28;20121;-71
2021/12/27 02:48:07;;;;;;;25.92;18.55;;;;;;;4.66;91.63;99949.03;5053949;28;20036;-71
2021/12/27 02:50:33;;;;;;;26.25;18.75;;;;;;;4.67;91.95;99941.84;5054242;28;20029;-70
2021/12/27 02:52:59;;;;;;;23.35;17.98;;;;;;;4.69;91.69;99935.22;5054541;28;20368;-70
2021/12/27 02:55:26;;;;;;;25.15;18.73;;;;;;;4.68;92.05;99930.91;5054027;28;20033;-70
2021/12/27 02:57:51;;;;;;;26.10;18.13;;;;;;;4.70;91.94;99928.81;5052859;28;20428;-70
2021/12/27 03:00:22;;;;;;;26.38;19.13;;;;;;;4.68;91.58;99928.22;5053797;28;20067;-71
2021/12/27 03:02:49;;;;;;;26.45;19.25;;;;;;;4.72;91.69;99934.78;5053088;28;20047;-71
2021/12/27 03:05:19;;;;;;;25.27;18.55;;;;;;;4.70;91.84;99931.50;5054385;28;20025;-70
2021/12/27 03:07:47;;;;;;;26.38;19.60;;;;;;;4.70;91.82;99928.81;5033768;28;20057;-70
2021/12/27 03:10:16;;;;;;;25.27;18.52;;;;;;;4.75;91.76;99929.00;5034139;28;20048;-71
2021/12/27 03:12:43;;;;;;;24.33;18.40;;;;;;;4.75;91.63;99918.28;5048045;28;20029;-71
2021/12/27 03:15:10;;;;;;;26.83;19.08;;;;;;;4.75;91.28;99917.47;5054156;28;20029;-71
2021/12/27 03:17:36;;;;;;;25.70;19.50;;;;;;;4.76;92.30;99919.13;5053357;28;20064;-71
2021/12/27 03:20:03;;;;;;;25.30;18.35;;;;;;;4.74;92.20;99907.78;5053732;28;20057;-70
2021/12/27 03:22:30;;;;;;;27.23;19.45;;;;;;;4.77;92.34;99910.88;5053468;28;20064;-71
2021/12/27 03:24:55;;;;;;;24.40;18.75;;;;;;;4.78;92.43;99911.69;5053579;28;20040;-71
2021/12/27 03:27:20;;;;;;;25.95;18.92;;;;;;;4.79;91.77;99913.34;5053634;28;20036;-71
2021/12/27 03:29:45;;;;;;;26.52;19.08;;;;;;;4.78;91.79;99915.19;5053078;28;20425;-70
2021/12/27 03:32:11;;;;;;;28.75;19.35;;;;;;;4.81;91.78;99915.81;5053469;28;20033;-71
2021/12/27 03:34:41;;;;;;;25.05;18.48;;;;;;;4.82;91.97;99912.13;5053504;28;20029;-71
2021/12/27 03:37:09;;;;;;;26.52;18.83;;;;;;;4.86;92.59;99911.50;5053670;28;20039;-70
2021/12/27 03:39:34;;;;;;;25.98;19.08;;;;;;;4.83;92.32;99913.75;5053423;28;20457;-71
2021/12/27 03:41:59;;;;;;;25.58;19.05;;;;;;;4.84;92.24;99905.50;5051723;28;20060;-70
2021/12/27 03:44:25;;;;;;;25.45;18.67;;;;;;;4.88;91.91;99908.59;5053509;28;20021;-71
2021/12/27 03:46:50;;;;;;;25.65;18.48;;;;;;;4.85;92.25;99901.78;5053169;28;20055;-72
2021/12/27 03:49:15;;;;;;;24.15;17.85;;;;;;;4.89;91.96;99907.53;5053153;28;20025;-71
2021/12/27 03:51:43;;;;;;;27.15;19.30;;;;;;;4.89;92.13;99896.81;5053169;28;20098;-71
2021/12/27 03:54:09;;;;;;;23.40;18.13;;;;;;;4.90;92.29;99893.09;5052932;28;20060;-71
2021/12/27 03:56:34;;;;;;;23.48;18.08;;;;;;;4.89;92.00;99891.44;5053050;28;20025;-71
2021/12/27 03:59:19;;;;;;;26.02;19.20;;;;;;;4.93;91.61;99892.69;5053241;28;20025;-70
2021/12/27 04:01:45;;;;;;;24.33;17.58;;;;;;;4.92;92.43;99878.47;5049177;28;20025;-70
2021/12/27 04:04:10;;;;;;;23.13;16.80;;;;;;;4.96;92.42;99879.66;5053513;28;20024;-71
2021/12/27 04:06:35;;;;;;;23.92;18.23;;;;;;;4.95;92.37;99877.19;5052746;28;20074;-70
2021/12/27 04:09:01;;;;;;;24.17;18.17;;;;;;;4.95;92.59;99874.53;5052826;28;20373;-71
2021/12/27 04:11:28;;;;;;;23.27;17.55;;;;;;;4.99;92.26;99873.06;5051042;28;20029;-70
2021/12/27 04:13:53;;;;;;;25.10;18.00;;;;;;;5.03;92.27;99873.47;5052780;28;20056;-71
2021/12/27 04:16:18;;;;;;;23.35;17.80;;;;;;;5.03;92.21;99873.47;5052839;28;20332;-71
2021/12/27 04:18:43;;;;;;;23.33;17.92;;;;;;;5.05;91.77;99869.53;5052696;28;20464;-70
2021/12/27 04:21:09;;;;;;;23.27;18.10;;;;;;;5.04;91.87;99864.38;5053122;28;20047;-71
2021/12/27 04:23:34;;;;;;;24.77;18.58;;;;;;;5.06;92.56;99867.69;5052649;28;20025;-71
2021/12/27 04:26:00;;;;;;;25.13;18.70;;;;;;;5.06;92.20;99860.47;5052837;28;20111;-71
2021/12/27 04:28:25;;;;;;;23.50;17.17;;;;;;;5.06;92.33;99871.19;5052440;28;20024;-71
2021/12/27 04:30:51;;;;;;;26.17;17.88;;;;;;;5.05;92.11;99853.44;5052097;28;20449;-71
2021/12/27 04:33:16;;;;;;;23.95;17.92;;;;;;;5.07;92.30;99851.41;5052647;28;20032;-71
2021/12/27 04:35:42;;;;;;;27.05;18.98;;;;;;;5.06;92.26;99849.75;5052479;28;20041;-70
2021/12/27 04:38:07;;;;;;;24.75;18.17;;;;;;;5.07;92.63;99854.06;5052666;28;20044;-70
2021/12/27 04:40:35;;;;;;;24.35;18.48;;;;;;;5.07;92.47;99850.56;5052405;28;20033;-71
2021/12/27 04:43:07;;;;;;;23.63;17.42;;;;;;;5.11;92.53;99838.38;5052276;28;20025;-71
2021/12/27 04:45:32;;;;;;;26.05;18.20;;;;;;;5.11;92.38;99844.53;5052354;28;20025;-70
2021/12/27 04:47:58;;;;;;;23.77;17.95;;;;;;;5.13;92.19;99845.19;5052236;28;20028;-71
2021/12/27 04:50:23;;;;;;;25.83;17.65;;;;;;;5.15;92.08;99837.72;5052149;28;20388;-71
2021/12/27 04:52:53;;;;;;;25.33;17.50;;;;;;;5.14;92.12;99838.75;5051614;28;20063;-70
2021/12/27 04:55:19;;;;;;;23.90;17.35;;;;;;;5.15;92.55;99836.91;5052362;28;20029;-71
2021/12/27 04:57:44;;;;;;;23.33;17.33;;;;;;;5.14;92.18;99845.97;5052223;28;20118;-71
2021/12/27 05:00:10;;;;;;;24.20;18.17;;;;;;;5.17;92.76;99850.91;5052164;28;20077;-71
2021/12/27 05:02:35;;;;;;;23.42;17.15;;;;;;;5.18;92.88;99835.63;5049260;28;20033;-71
2021/12/27 05:05:00;;;;;;;22.58;17.33;;;;;;;5.18;92.43;99841.00;5032162;28;20480;-71
2021/12/27 05:07:26;;;;;;;24.65;18.10;;;;;;;5.20;92.74;99837.09;5032413;28;20030;-70
2021/12/27 05:09:51;;;;;;;23.55;17.38;;;;;;;5.20;92.71;99836.28;5032097;28;20033;-71
2021/12/27 05:12:16;;;;;;;23.27;16.42;;;;;;;5.21;92.76;99829.84;5032602;28;20065;-71
2021/12/27 05:14:41;;;;;;;23.85;17.80;;;;;;;5.22;92.69;99837.69;5031847;28;20026;-70
2021/12/27 05:17:07;;;;;;;22.42;16.77;;;;;;;5.24;92.49;99842.81;5046927;28;20055;-70
2021/12/27 05:19:32;;;;;;;22.63;17.40;;;;;;;5.23;92.60;99843.88;5052531;28;20035;-71
2021/12/27 05:21:57;;;;;;;22.98;16.85;;;;;;;5.26;92.96;99838.09;5052064;28;20033;-70
2021/12/27 05:24:23;;;;;;;20.52;16.52;;;;;;;5.25;92.22;99834.56;5052580;28;20036;-71
2021/12/27 05:26:49;;;;;;;22.25;17.00;;;;;;;5.27;92.73;99840.56;5051914;28;20116;-71
2021/12/27 05:29:17;;;;;;;22.48;16.48;;;;;;;5.27;92.52;99834.38;5052012;28;20051;-71
2021/12/27 05:31:45;;;;;;;22.75;16.63;;;;;;;5.27;92.49;99829.00;5051614;28;20484;-71
2021/12/27 05:34:11;;;;;;;21.60;16.15;;;;;;;5.31;92.89;99831.06;5052045;28;20025;-71
2021/12/27 05:36:36;;;;;;;21.35;16.35;;;;;;;5.32;92.37;99821.13;5051848;28;20029;-70
2021/12/27 05:39:36;;;;;;;23.58;16.95;;;;;;;5.34;92.99;99819.03;5050255;28;20086;-70
2021/12/27 05:42:02;;;;;;;23.70;17.02;;;;;;;5.33;92.74;99812.06;5051763;28;20037;-71
2021/12/27 05:44:27;;;;;;;22.55;16.50;;;;;;;5.37;93.02;99817.81;5051130;28;20487;-71
2021/12/27 05:46:54;;;;;;;22.05;16.35;;;;;;;5.33;92.77;99823.59;5051212;28;20064;-71
2021/12/27 05:49:20;;;;;;;24.40;17.05;;;;;;;5.33;93.30;99812.88;5051849;28;20032;-70
2021/12/27 05:51:45;;;;;;;22.52;16.40;;;;;;;5.37;92.99;99815.13;5051490;28;20025;-71
2021/12/27 05:54:13;;;;;;;21.13;15.85;;;;;;;5.38;92.57;99822.13;5051644;28;20033;-71
2021/12/27 05:56:38;;;;;;;20.67;16.45;;;;;;;5.34;92.84;99819.03;5051631;28;20025;-71
2021/12/27 05:59:03;;;;;;;20.42;15.82;;;;;;;5.37;93.15;99829.34;5051857;28;20028;-71
2021/12/27 06:01:29;;;;;;;21.45;16.17;;;;;;;5.35;93.24;99828.75;5049281;28;20033;-71
2021/12/27 06:03:57;;;;;;;21.17;15.90;;;;;;;5.41;93.05;99825.19;5051590;28;20025;-71
2021/12/27 06:06:23;;;;;;;23.38;16.50;;;;;;;5.43;92.87;99831.16;5053784;28;20597;-70
2021/12/27 06:08:48;;;;;;;22.48;16.83;;;;;;;5.43;92.78;99824.97;5055400;28;20059;-71
2021/12/27 06:11:13;;;;;;;22.20;15.73;;;;;;;5.47;92.57;99824.31;5055248;28;20032;-71
2021/12/27 06:13:39;;;;;;;22.00;16.42;;;;;;;5.45;93.06;99818.38;5055049;28;20021;-71
2021/12/27 06:16:04;;;;;;;22.27;16.65;;;;;;;5.50;92.88;99817.72;5055106;28;20029;-70
2021/12/27 06:18:29;;;;;;;21.38;15.85;;;;;;;5.52;92.66;99822.88;5054979;28;20383;-70
2021/12/27 06:20:55;;;;;;;21.52;16.23;;;;;;;5.52;92.72;99825.56;5054331;28;20124;-71
2021/12/27 06:23:20;;;;;;;22.50;16.88;;;;;;;5.53;92.65;99827.19;5054666;28;20471;-70
2021/12/27 06:25:45;;;;;;;21.38;15.95;;;;;;;5.52;92.63;99820.19;5055086;28;20025;-71
2021/12/27 06:28:11;;;;;;;22.85;16.52;;;;;;;5.56;92.68;99821.41;5054450;28;20108;-72
2021/12/27 06:30:36;;;;;;;21.83;16.65;;;;;;;5.54;92.83;99810.88;5054776;28;20044;-71
2021/12/27 06:33:02;;;;;;;24.05;16.95;;;;;;;5.59;93.20;99816.41;5053367;28;20032;-71
2021/12/27 06:35:27;;;;;;;21.90;16.85;;;;;;;5.55;92.83;99814.38;5054906;28;20086;-71
2021/12/27 06:37:53;;;;;;;23.33;16.23;;;;;;;5.57;92.83;99806.91;5054323;28;20033;-71
2021/12/27 06:40:18;;;;;;;22.83;15.68;;;;;;;5.60;93.31;99812.69;5054404;28;20614;-71
2021/12/27 06:42:44;;;;;;;23.95;16.10;;;;;;;5.62;93.31;99818.66;5054477;28;20044;-71
2021/12/27 06:45:10;;;;;;;21.67;15.77;;;;;;;5.60;93.07;99815.38;5054663;28;20029;-71
2021/12/27 06:47:35;;;;;;;24.75;16.58;;;;;;;5.59;93.31;99813.72;5053966;28;20040;-71
2021/12/27 06:50:01;;;;;;;22.80;16.05;;;;;;;5.63;93.07;99806.88;5053999;28;20040;-70
2021/12/27 06:52:26;;;;;;;23.85;16.17;;;;;;;5.65;93.23;99801.31;5054302;28;20111;-71
2021/12/27 06:54:51;;;;;;;21.15;16.23;;;;;;;5.66;92.72;99801.09;5053624;28;20029;-70
2021/12/27 06:57:18;;;;;;;20.65;15.00;;;;;;;5.65;93.30;99793.25;5054431;28;20495;-71
2021/12/27 06:59:45;;;;;;;24.95;16.08;;;;;;;5.68;93.28;99792.81;5053986;28;20449;-71
2021/12/27 07:02:10;;;;;;;25.60;16.00;;;;;;;5.70;93.18;99788.03;5051506;28;20037;-70
2021/12/27 07:04:35;;;;;;;23.05;15.95;;;;;;;5.69;92.99;99789.06;5054278;28;20135;-71
2021/12/27 07:07:01;;;;;;;20.33;15.45;;;;;;;5.68;93.35;99782.06;5053276;28;20062;-71
2021/12/27 07:09:26;;;;;;;22.38;15.85;;;;;;;5.72;92.92;99780.56;5054165;28;20075;-71
2021/12/27 07:11:52;;;;;;;21.45;15.63;;;;;;;5.68;92.32;99768.66;5051838;28;20482;-71
2021/12/27 07:14:17;;;;;;;21.83;15.40;;;;;;;5.71;92.99;99778.94;5053985;28;20028;-71
2021/12/27 07:16:43;;;;;;;22.02;15.20;;;;;;;5.65;92.96;99772.59;5053515;28;20071;-70
2021/12/27 07:19:08;;;;;;;20.33;14.52;;;;;;;5.72;92.99;99777.06;5053708;28;20037;-71
2021/12/27 07:21:33;;;;;;;19.35;15.00;;;;;;;5.73;93.10;99778.72;5053985;28;20481;-71
2021/12/27 07:23:59;;;;;;;22.23;15.55;;;;;;;5.75;93.58;99774.78;5053921;28;20024;-71
2021/12/27 07:26:24;;;;;;;20.98;15.02;;;;;;;5.75;93.08;99766.75;5053315;28;20033;-70
2021/12/27 07:28:49;;;;;;;20.90;14.82;;;;;;;5.75;92.62;99763.22;5053299;28;20049;-71
2021/12/27 07:31:15;;;;;;;21.08;15.25;;;;;;;5.75;93.11;99772.13;5053309;28;20032;-71
2021/12/27 07:33:40;;;;;;;24.02;16.13;;;;;;;5.75;92.92;99774.78;5053743;28;20442;-71
2021/12/27 07:36:08;;;;;;;22.50;15.18;;;;;;;5.77;93.08;99782.63;5053256;28;20527;-70
2021/12/27 07:38:35;;;;;;;22.65;15.43;;;;;;;5.77;93.02;99775.38;5053633;28;20111;-71
2021/12/27 07:41:00;;;;;;;22.23;15.70;;;;;;;5.77;92.44;99770.03;5053158;28;20037;-70
2021/12/27 07:43:26;;;;;;;22.55;15.40;;;;;;;5.79;92.86;99778.66;5053561;28;20036;-71
2021/12/27 07:45:51;;;;;;;19.25;14.80;;;;;;;5.75;92.30;99777.47;5053252;28;20025;-71
2021/12/27 07:48:16;;;;;;;22.63;15.30;;;;;;;5.78;92.52;99782.41;5053190;28;20102;-70
2021/12/27 07:50:41;;;;;;;20.40;15.40;;;;;;;5.77;92.59;99778.06;5052781;28;20476;-71
2021/12/27 07:53:07;;;;;;;21.13;14.75;;;;;;;5.79;92.53;99781.34;5053124;28;20175;-71
2021/12/27 07:55:32;;;;;;;20.33;14.85;;;;;;;5.78;93.21;99781.56;5052945;28;20063;-71
2021/12/27 07:57:59;;;;;;;20.77;14.57;;;;;;;5.78;92.83;99778.88;5052769;28;20029;-71
2021/12/27 08:00:25;;;;;;;20.70;14.10;;;;;;;5.82;92.58;99780.91;5051451;28;20589;-71
2021/12/27 08:02:51;;;;;;;22.70;15.00;;;;;;;5.82;92.94;99786.28;5052437;28;20050;-71
2021/12/27 08:05:16;;;;;;;19.77;14.05;;;;;;;5.82;92.44;99775.53;5053208;28;20025;-71
2021/12/27 08:07:42;;;;;;;21.92;14.73;;;;;;;5.80;91.85;99784.88;5053257;28;20115;-71
2021/12/27 08:10:09;;;;;;;20.42;14.32;;;;;;;5.80;92.00;99788.38;5052616;28;20075;-71
2021/12/27 08:12:35;;;;;;;20.98;13.98;;;;;;;5.77;91.91;99790.69;5052827;28;20032;-71
2021/12/27 08:15:00;;;;;;;20.13;13.80;;;;;;;5.77;91.92;99793.38;5052812;28;20040;-70
2021/12/27 08:17:25;;;;;;;18.30;13.45;;;;;;;5.75;91.68;99793.59;5053008;28;20376;-72
2021/12/27 08:19:51;;;;;;;19.75;13.60;;;;;;;5.74;91.83;99797.31;5053001;28;20377;-72
2021/12/27 08:22:16;;;;;;;19.92;13.27;;;;;;;5.72;92.13;99779.75;5052526;28;20419;-73
2021/12/27 08:24:42;;;;;;;18.75;13.25;;;;;;;5.78;92.22;99786.94;5052754;28;20483;-73
2021/12/27 08:27:07;;;;;;;19.17;13.90;;;;;;;5.77;91.91;99796.88;5052419;28;20064;-71
2021/12/27 08:29:33;;;;;;;18.35;13.15;;;;;;;5.80;92.40;99795.63;5051342;28;20128;-72
2021/12/27 08:31:58;;;;;;;21.05;13.73;;;;;;;5.82;91.95;99778.22;5053929;28;20025;-73
2021/12/27 08:34:23;;;;;;;20.30;13.68;;;;;;;5.82;92.15;99782.78;5052265;28;20033;-71
2021/12/27 08:36:49;;;;;;;22.73;15.38;;;;;;;5.81;92.03;99775.75;5051916;28;20075;-73
2021/12/27 08:39:15;;;;;;;19.35;13.40;;;;;;;5.80;92.40;99777.63;5052297;28;20036;-71
2021/12/27 08:41:40;;;;;;;18.42;13.02;;;;;;;5.81;92.00;99773.91;5052724;28;20143;-73
2021/12/27 08:44:06;;;;;;;16.75;13.10;;;;;;;5.81;91.85;99765.88;5053219;28;20484;-72
2021/12/27 08:46:35;;;;;;;18.90;13.20;;;;;;;5.81;91.93;99773.91;5052189;28;20383;-73
2021/12/27 08:49:01;;;;;;;18.48;13.70;;;;;;;5.83;91.87;99769.13;5052268;28;20033;-77
2021/12/27 08:51:27;;;;;;;18.98;13.30;;;;;;;5.86;91.50;99752.59;5052373;28;20032;-76
2021/12/27 08:53:52;;;;;;;16.85;12.93;;;;;;;5.89;91.62;99745.13;5051862;28;20594;-76
2021/12/27 08:56:18;;;;;;;21.00;12.63;;;;;;;5.91;91.56;99743.06;5050925;28;20063;-74
2021/12/27 08:58:44;;;;;;;19.80;13.55;;;;;;;5.84;91.38;99738.56;5052422;28;20036;-71
2021/12/27 09:01:10;;;;;;;24.15;12.95;;;;;;;5.85;91.22;99742.88;5048358;28;20041;-70
2021/12/27 09:03:36;;;;;;;17.77;14.07;;;;;;;5.84;91.64;99735.03;5051915;28;20029;-72
2021/12/27 09:06:03;;;;;;;16.92;12.73;;;;;;;5.81;91.61;99744.38;5050572;28;20033;-74
2021/12/27 09:08:29;;;;;;;18.27;12.38;;;;;;;5.82;91.34;99748.69;5052169;28;20021;-78
2021/12/27 09:10:57;;;;;;;16.80;12.90;;;;;;;5.81;91.44;99744.38;5050490;28;20029;-77
2021/12/27 09:13:29;;;;;;;17.90;11.82;;;;;;;5.79;91.22;99741.09;5051965;28;20078;-72
2021/12/27 09:15:56;;;;;;;16.42;12.48;;;;;;;5.84;91.08;99754.69;5052058;28;20032;-71
2021/12/27 09:18:21;;;;;;;17.65;12.15;;;;;;;5.79;91.25;99745.63;5062742;28;20033;-77
2021/12/27 09:20:47;;;;;;;17.45;11.68;;;;;;;5.78;90.84;99746.66;5052524;28;20036;-78
2021/12/27 09:23:12;;;;;;;14.93;11.48;;;;;;;5.78;91.06;99752.88;5050439;28;20029;-73
2021/12/27 09:25:38;;;;;;;17.15;11.93;;;;;;;5.78;91.55;99760.94;5049141;28;20480;-72
2021/12/27 09:28:03;;;;;;;14.75;11.43;;;;;;;5.78;90.96;99755.56;5051785;28;20094;-73
2021/12/27 09:30:29;;;;;;;17.05;11.70;;;;;;;5.79;91.95;99754.50;5051190;28;20037;-73
2021/12/27 09:32:54;;;;;;;16.50;11.85;;;;;;;5.86;91.34;99747.22;5053190;28;20028;-71
2021/12/27 09:35:19;;;;;;;16.55;11.95;;;;;;;5.87;91.35;99737.28;5052980;28;20033;-72
2021/12/27 09:37:45;;;;;;;16.10;11.48;;;;;;;5.94;91.09;99742.59;5051749;28;20036;-72
2021/12/27 09:40:11;;;;;;;14.02;10.98;;;;;;;5.93;90.62;99746.31;5052272;28;20048;-73
2021/12/27 09:42:36;;;;;;;17.27;11.20;;;;;;;5.95;91.19;99739.69;5055814;28;20037;-72
2021/12/27 09:45:04;;;;;;;13.60;10.80;;;;;;;5.97;91.43;99740.31;5055393;28;20057;-76
2021/12/27 09:47:31;;;;;;;14.05;10.80;;;;;;;5.97;90.90;99732.25;5054299;28;20032;-76
2021/12/27 09:49:57;;;;;;;19.23;14.25;;;;;;;6.01;91.29;99727.28;5055441;28;20082;-76
2021/12/27 09:52:22;;;;;;;17.30;12.68;;;;;;;6.01;91.26;99727.28;5054637;28;20419;-75
2021/12/27 09:54:48;;;;;;;13.45;10.88;;;;;;;6.05;91.24;99725.78;5055385;28;20077;-71
2021/12/27 09:57:14;;;;;;;14.68;11.18;;;;;;;6.09;91.45;99729.66;5055023;28;20460;-74
2021/12/27 09:59:40;;;;;;;14.40;10.27;;;;;;;6.15;90.95;99726.09;5058261;28;20033;-74
2021/12/27 10:02:05;;;;;;;14.50;10.52;;;;;;;6.17;90.59;99732.03;5060353;28;20036;-74
2021/12/27 10:04:32;;;;;;;13.57;10.20;;;;;;;6.20;90.97;99725.41;5055550;28;20033;-73
2021/12/27 10:06:57;;;;;;;14.65;10.82;;;;;;;6.29;90.93;99712.50;5054325;28;20037;-74
2021/12/27 10:09:22;;;;;;;14.02;10.30;;;;;;;6.30;90.55;99698.03;5053970;28;20517;-77
2021/12/27 10:11:48;;;;;;;14.63;10.70;;;;;;;6.32;90.47;99685.19;5053272;28;20044;-75
2021/12/27 10:14:17;;;;;;;13.65;10.25;;;;;;;6.31;90.74;99686.22;5039280;28;20468;-74
2021/12/27 10:16:55;;;;;;;20.58;10.30;;;;;;;6.32;90.48;99698.63;5038589;28;20119;-77
2021/12/27 10:19:22;;;;;;;12.75;9.93;;;;;;;6.31;90.12;99697.81;5054444;28;20028;-71
2021/12/27 10:21:51;;;;;;;12.77;10.35;;;;;;;6.34;90.85;99696.53;5054798;28;20476;-71
2021/12/27 10:24:27;;;;;;;14.25;10.18;;;;;;;6.32;90.83;99701.31;5051067;28;20044;-71
2021/12/27 10:26:53;;;;;;;13.77;10.25;;;;;;;6.34;90.68;99704.59;5054501;28;20057;-71
2021/12/27 10:29:20;;;;;;;16.77;9.85;;;;;;;6.41;90.83;99707.22;5054808;28;20084;-72
2021/12/27 10:32:16;;;;;;;15.40;9.65;;;;;;;6.44;90.89;99702.19;5054730;28;20033;-70
2021/12/27 10:34:49;;;;;;;12.95;9.98;;;;;;;6.47;90.58;99699.03;5053644;28;20041;-72
2021/12/27 10:37:28;;;;;;;12.13;9.57;;;;;;;6.51;90.39;99692.19;5054547;28;20029;-73
2021/12/27 10:39:56;;;;;;;14.80;10.02;;;;;;;6.63;90.69;99691.41;5054623;28;20357;-74
2021/12/27 10:42:28;;;;;;;13.63;9.82;;;;;;;6.65;90.49;99690.13;5055985;28;20039;-71
2021/12/27 10:44:56;;;;;;;12.65;9.95;;;;;;;6.71;90.82;99691.09;5058126;28;20086;-72
2021/12/27 10:47:32;;;;;;;12.88;9.30;;;;;;;6.77;90.46;99692.88;5054597;28;20036;-72
2021/12/27 10:50:05;;;;;;;11.60;9.00;;;;;;;6.80;90.71;99687.03;5052298;28;20393;-72
2021/12/27 10:52:58;;;;;;;14.50;9.00;;;;;;;6.90;90.78;99681.94;5053130;28;20040;-72
2021/12/27 10:55:25;;;;;;;12.25;8.70;;;;;;;7.00;90.43;99681.34;5054068;28;20119;-74
2021/12/27 10:57:51;;;;;;;12.50;9.45;;;;;;;7.04;90.34;99682.53;5053966;28;20025;-75
2021/12/27 11:00:20;;;;;;;12.88;9.32;;;;;;;7.06;89.77;99685.00;5068877;28;20039;-74
2021/12/27 11:02:45;;;;;;;12.75;9.05;;;;;;;7.11;89.51;99687.84;5051419;28;20074;-76
2021/12/27 11:05:19;;;;;;;12.23;8.38;;;;;;;7.11;90.13;99682.47;5053997;28;20036;-79
2021/12/27 11:07:45;;;;;;;15.60;9.15;;;;;;;7.16;90.03;99681.75;5054017;28;20029;-73
2021/12/27 11:10:11;;;;;;;11.13;8.82;;;;;;;7.16;89.66;99679.88;5053879;28;20551;-75
2021/12/27 11:12:37;;;;;;;11.95;8.82;;;;;;;7.18;89.89;99680.47;5053837;28;20082;-74
2021/12/27 11:15:03;;;;;;;10.18;8.45;;;;;;;7.18;90.26;99680.47;5073363;28;20032;-75
2021/12/27 11:17:28;;;;;;;10.98;8.55;;;;;;;7.22;90.40;99673.56;5061120;28;20029;-72
2021/12/27 11:19:54;;;;;;;13.32;8.48;;;;;;;7.22;90.46;99670.06;5053741;28;20029;-73
2021/12/27 11:22:19;;;;;;;13.63;8.50;;;;;;;7.26;90.14;99658.59;5055135;28;20037;-74